Erin Prairie, Wisconsin
Current Conditions -  °F | °C
As of 12:55 AM on Friday 28 Nov 2014 (Local Time) from KRNH Reporting Station
Light Snow Light Snow  
Wind Chill: -4°   Ceiling: 800
Heat Index:   Visibility: 1.7mi
Dew Point:   Wind: 8mph
Humidity: 83%   Direction: 160°SSE
Pressure: 30.24"   Gusts: NA
Location:  44.9659°N, 92.3734°W
Report Text: KRNH 280655Z AUTO 16007KT 1 3/4SM -SN OVC008 M13/M15 A3024 RMK AO2 T11301154
Loading
Personal Weather Stations






























Interactive Weather Map New forecast layout! Learn more

10-Day Weather Forecast

Advertisements
Track Severe Weather on mobile